sensor_id;sensor_type;location;lat;lon;timestamp;P1;durP1;ratioP1;P2;durP2;ratioP2
12511;SDS011;6321;53.798;10.382;2023-07-31T00:02:06;5.77;;;2.50;;
12511;SDS011;6321;53.798;10.382;2023-07-31T00:04:32;3.00;;;2.50;;
12511;SDS011;6321;53.798;10.382;2023-07-31T00:06:58;4.40;;;2.63;;
12511;SDS011;6321;53.798;10.382;2023-07-31T00:09:24;5.63;;;2.80;;
12511;SDS011;6321;53.798;10.382;2023-07-31T00:11:50;7.90;;;3.13;;
12511;SDS011;6321;53.798;10.382;2023-07-31T00:14:16;5.70;;;2.40;;
12511;SDS011;6321;53.798;10.382;2023-07-31T00:16:42;6.77;;;2.53;;
12511;SDS011;6321;53.798;10.382;2023-07-31T00:19:08;5.47;;;2.97;;
12511;SDS011;6321;53.798;10.382;2023-07-31T00:21:34;7.00;;;2.77;;
12511;SDS011;6321;53.798;10.382;2023-07-31T00:24:00;5.70;;;3.10;;
12511;SDS011;6321;53.798;10.382;2023-07-31T00:26:26;6.57;;;3.47;;
12511;SDS011;6321;53.798;10.382;2023-07-31T00:28:52;6.60;;;3.10;;
12511;SDS011;6321;53.798;10.382;2023-07-31T00:31:18;5.67;;;2.50;;
12511;SDS011;6321;53.798;10.382;2023-07-31T00:33:44;7.93;;;2.93;;
12511;SDS011;6321;53.798;10.382;2023-07-31T00:36:09;7.63;;;3.07;;
12511;SDS011;6321;53.798;10.382;2023-07-31T00:38:35;7.57;;;2.97;;
12511;SDS011;6321;53.798;10.382;2023-07-31T00:41:01;5.83;;;3.30;;
12511;SDS011;6321;53.798;10.382;2023-07-31T00:43:27;6.70;;;3.17;;
12511;SDS011;6321;53.798;10.382;2023-07-31T00:45:53;7.30;;;3.40;;
12511;SDS011;6321;53.798;10.382;2023-07-31T00:48:19;8.73;;;3.13;;
12511;SDS011;6321;53.798;10.382;2023-07-31T00:50:45;5.43;;;3.20;;
12511;SDS011;6321;53.798;10.382;2023-07-31T00:53:11;8.10;;;3.47;;
12511;SDS011;6321;53.798;10.382;2023-07-31T00:55:37;6.40;;;3.13;;
12511;SDS011;6321;53.798;10.382;2023-07-31T00:58:03;8.40;;;3.20;;
12511;SDS011;6321;53.798;10.382;2023-07-31T01:00:29;10.23;;;3.90;;
12511;SDS011;6321;53.798;10.382;2023-07-31T01:02:55;7.73;;;3.80;;
12511;SDS011;6321;53.798;10.382;2023-07-31T01:05:25;8.37;;;3.03;;
12511;SDS011;6321;53.798;10.382;2023-07-31T01:07:52;4.13;;;3.23;;
12511;SDS011;6321;53.798;10.382;2023-07-31T01:10:23;6.10;;;3.17;;
12511;SDS011;6321;53.798;10.382;2023-07-31T01:12:50;12.83;;;3.40;;
12511;SDS011;6321;53.798;10.382;2023-07-31T01:15:17;9.80;;;3.90;;
12511;SDS011;6321;53.798;10.382;2023-07-31T01:17:43;11.60;;;3.70;;
12511;SDS011;6321;53.798;10.382;2023-07-31T01:20:13;5.83;;;3.30;;
12511;SDS011;6321;53.798;10.382;2023-07-31T01:25:16;7.07;;;3.47;;
12511;SDS011;6321;53.798;10.382;2023-07-31T01:27:52;6.50;;;3.03;;
12511;SDS011;6321;53.798;10.382;2023-07-31T01:30:21;6.33;;;3.37;;
12511;SDS011;6321;53.798;10.382;2023-07-31T01:32:50;9.30;;;3.40;;
12511;SDS011;6321;53.798;10.382;2023-07-31T01:35:17;9.00;;;3.60;;
12511;SDS011;6321;53.798;10.382;2023-07-31T01:37:43;8.77;;;3.13;;
12511;SDS011;6321;53.798;10.382;2023-07-31T01:40:09;6.90;;;2.73;;
12511;SDS011;6321;53.798;10.382;2023-07-31T01:42:35;6.83;;;3.37;;
12511;SDS011;6321;53.798;10.382;2023-07-31T01:45:01;10.23;;;2.80;;
12511;SDS011;6321;53.798;10.382;2023-07-31T01:47:27;8.50;;;3.27;;
12511;SDS011;6321;53.798;10.382;2023-07-31T01:49:53;7.27;;;2.87;;
12511;SDS011;6321;53.798;10.382;2023-07-31T01:52:19;3.40;;;2.37;;
12511;SDS011;6321;53.798;10.382;2023-07-31T01:54:44;8.83;;;3.10;;
12511;SDS011;6321;53.798;10.382;2023-07-31T01:57:10;6.70;;;3.37;;
12511;SDS011;6321;53.798;10.382;2023-07-31T01:59:36;9.80;;;4.07;;
12511;SDS011;6321;53.798;10.382;2023-07-31T02:02:02;6.60;;;3.13;;
12511;SDS011;6321;53.798;10.382;2023-07-31T02:04:28;6.87;;;2.70;;
12511;SDS011;6321;53.798;10.382;2023-07-31T02:06:54;6.17;;;3.37;;
12511;SDS011;6321;53.798;10.382;2023-07-31T02:09:20;6.70;;;3.03;;
12511;SDS011;6321;53.798;10.382;2023-07-31T02:11:46;10.40;;;3.97;;
12511;SDS011;6321;53.798;10.382;2023-07-31T02:14:12;9.87;;;3.60;;
12511;SDS011;6321;53.798;10.382;2023-07-31T02:16:38;9.77;;;3.73;;
12511;SDS011;6321;53.798;10.382;2023-07-31T02:19:03;8.97;;;4.20;;
12511;SDS011;6321;53.798;10.382;2023-07-31T02:21:29;8.97;;;3.40;;
12511;SDS011;6321;53.798;10.382;2023-07-31T02:23:55;8.07;;;3.77;;
12511;SDS011;6321;53.798;10.382;2023-07-31T02:26:21;9.03;;;3.63;;
12511;SDS011;6321;53.798;10.382;2023-07-31T02:28:47;10.03;;;4.13;;
12511;SDS011;6321;53.798;10.382;2023-07-31T02:31:13;9.23;;;3.80;;
12511;SDS011;6321;53.798;10.382;2023-07-31T02:33:39;12.93;;;4.40;;
12511;SDS011;6321;53.798;10.382;2023-07-31T02:36:05;7.43;;;4.00;;
12511;SDS011;6321;53.798;10.382;2023-07-31T02:38:31;9.33;;;3.73;;
12511;SDS011;6321;53.798;10.382;2023-07-31T02:40:57;7.67;;;3.83;;
12511;SDS011;6321;53.798;10.382;2023-07-31T02:43:22;7.07;;;3.80;;
12511;SDS011;6321;53.798;10.382;2023-07-31T02:45:52;8.53;;;3.90;;
12511;SDS011;6321;53.798;10.382;2023-07-31T02:48:18;9.33;;;3.90;;
12511;SDS011;6321;53.798;10.382;2023-07-31T02:50:45;6.10;;;3.77;;
12511;SDS011;6321;53.798;10.382;2023-07-31T02:53:11;6.83;;;3.80;;
12511;SDS011;6321;53.798;10.382;2023-07-31T02:55:37;9.47;;;5.37;;
12511;SDS011;6321;53.798;10.382;2023-07-31T02:58:03;12.37;;;4.67;;
12511;SDS011;6321;53.798;10.382;2023-07-31T03:00:29;10.47;;;4.67;;
12511;SDS011;6321;53.798;10.382;2023-07-31T03:02:55;7.57;;;3.90;;
12511;SDS011;6321;53.798;10.382;2023-07-31T03:05:21;11.67;;;4.17;;
12511;SDS011;6321;53.798;10.382;2023-07-31T03:07:47;7.93;;;3.70;;
12511;SDS011;6321;53.798;10.382;2023-07-31T03:10:13;7.20;;;4.37;;
12511;SDS011;6321;53.798;10.382;2023-07-31T03:12:39;8.57;;;4.10;;
12511;SDS011;6321;53.798;10.382;2023-07-31T03:15:06;6.70;;;3.70;;
12511;SDS011;6321;53.798;10.382;2023-07-31T03:17:32;9.57;;;3.80;;
12511;SDS011;6321;53.798;10.382;2023-07-31T03:19:58;8.93;;;3.87;;
12511;SDS011;6321;53.798;10.382;2023-07-31T03:22:24;5.50;;;3.57;;
12511;SDS011;6321;53.798;10.382;2023-07-31T03:24:50;9.27;;;4.00;;
12511;SDS011;6321;53.798;10.382;2023-07-31T03:27:15;6.03;;;3.67;;
12511;SDS011;6321;53.798;10.382;2023-07-31T03:29:41;9.57;;;4.20;;
12511;SDS011;6321;53.798;10.382;2023-07-31T03:32:07;8.70;;;4.00;;
12511;SDS011;6321;53.798;10.382;2023-07-31T03:34:33;8.07;;;4.20;;
12511;SDS011;6321;53.798;10.382;2023-07-31T03:36:59;7.77;;;3.60;;
12511;SDS011;6321;53.798;10.382;2023-07-31T03:39:25;8.13;;;3.77;;
12511;SDS011;6321;53.798;10.382;2023-07-31T03:41:51;10.77;;;4.93;;
12511;SDS011;6321;53.798;10.382;2023-07-31T03:44:17;7.17;;;4.03;;
12511;SDS011;6321;53.798;10.382;2023-07-31T03:46:43;11.10;;;4.37;;
12511;SDS011;6321;53.798;10.382;2023-07-31T03:49:09;9.40;;;4.17;;
12511;SDS011;6321;53.798;10.382;2023-07-31T03:51:35;8.93;;;4.20;;
12511;SDS011;6321;53.798;10.382;2023-07-31T03:54:01;6.00;;;3.70;;
12511;SDS011;6321;53.798;10.382;2023-07-31T03:56:27;6.77;;;3.47;;
12511;SDS011;6321;53.798;10.382;2023-07-31T03:58:53;6.60;;;4.30;;
12511;SDS011;6321;53.798;10.382;2023-07-31T04:01:19;7.87;;;3.83;;
12511;SDS011;6321;53.798;10.382;2023-07-31T04:03:45;10.90;;;4.50;;
12511;SDS011;6321;53.798;10.382;2023-07-31T04:06:11;8.20;;;4.50;;
12511;SDS011;6321;53.798;10.382;2023-07-31T04:08:37;8.77;;;4.60;;
12511;SDS011;6321;53.798;10.382;2023-07-31T04:11:03;7.20;;;4.10;;
12511;SDS011;6321;53.798;10.382;2023-07-31T04:13:29;8.27;;;4.23;;
12511;SDS011;6321;53.798;10.382;2023-07-31T04:15:55;10.87;;;4.40;;
12511;SDS011;6321;53.798;10.382;2023-07-31T04:18:21;6.17;;;4.00;;
12511;SDS011;6321;53.798;10.382;2023-07-31T04:20:47;5.73;;;4.03;;
12511;SDS011;6321;53.798;10.382;2023-07-31T04:23:13;14.93;;;5.40;;
12511;SDS011;6321;53.798;10.382;2023-07-31T04:25:39;8.40;;;4.47;;
12511;SDS011;6321;53.798;10.382;2023-07-31T04:28:05;7.97;;;4.90;;
12511;SDS011;6321;53.798;10.382;2023-07-31T04:30:32;9.00;;;4.70;;
12511;SDS011;6321;53.798;10.382;2023-07-31T04:32:58;13.27;;;4.70;;
12511;SDS011;6321;53.798;10.382;2023-07-31T04:35:24;9.27;;;4.70;;
12511;SDS011;6321;53.798;10.382;2023-07-31T04:37:50;8.10;;;4.63;;
12511;SDS011;6321;53.798;10.382;2023-07-31T04:40:16;7.57;;;4.80;;
12511;SDS011;6321;53.798;10.382;2023-07-31T04:42:42;9.00;;;4.93;;
12511;SDS011;6321;53.798;10.382;2023-07-31T04:45:08;8.70;;;5.33;;
12511;SDS011;6321;53.798;10.382;2023-07-31T04:47:34;7.87;;;5.53;;
12511;SDS011;6321;53.798;10.382;2023-07-31T04:50:00;8.10;;;5.50;;
12511;SDS011;6321;53.798;10.382;2023-07-31T04:52:26;9.17;;;5.83;;
12511;SDS011;6321;53.798;10.382;2023-07-31T04:54:52;8.80;;;6.10;;
12511;SDS011;6321;53.798;10.382;2023-07-31T04:57:18;7.80;;;5.90;;
12511;SDS011;6321;53.798;10.382;2023-07-31T04:59:44;8.07;;;5.53;;
12511;SDS011;6321;53.798;10.382;2023-07-31T05:02:11;8.00;;;6.30;;
12511;SDS011;6321;53.798;10.382;2023-07-31T05:04:38;10.43;;;6.47;;
12511;SDS011;6321;53.798;10.382;2023-07-31T05:07:04;8.73;;;6.60;;
12511;SDS011;6321;53.798;10.382;2023-07-31T05:09:30;8.73;;;6.40;;
12511;SDS011;6321;53.798;10.382;2023-07-31T05:11:56;7.77;;;6.20;;
12511;SDS011;6321;53.798;10.382;2023-07-31T05:14:22;7.83;;;6.67;;
12511;SDS011;6321;53.798;10.382;2023-07-31T05:16:48;8.03;;;6.43;;
12511;SDS011;6321;53.798;10.382;2023-07-31T05:19:14;10.27;;;5.93;;
12511;SDS011;6321;53.798;10.382;2023-07-31T05:21:40;8.87;;;6.93;;
12511;SDS011;6321;53.798;10.382;2023-07-31T05:24:06;7.67;;;6.60;;
12511;SDS011;6321;53.798;10.382;2023-07-31T05:26:32;6.47;;;5.63;;
12511;SDS011;6321;53.798;10.382;2023-07-31T05:28:57;6.43;;;5.40;;
12511;SDS011;6321;53.798;10.382;2023-07-31T05:31:23;10.07;;;5.23;;
12511;SDS011;6321;53.798;10.382;2023-07-31T05:33:50;6.87;;;5.37;;
12511;SDS011;6321;53.798;10.382;2023-07-31T05:36:16;9.97;;;5.63;;
12511;SDS011;6321;53.798;10.382;2023-07-31T05:38:42;6.60;;;6.07;;
12511;SDS011;6321;53.798;10.382;2023-07-31T05:41:11;7.97;;;5.73;;
12511;SDS011;6321;53.798;10.382;2023-07-31T05:43:37;6.57;;;5.90;;
12511;SDS011;6321;53.798;10.382;2023-07-31T05:46:03;6.80;;;6.17;;
12511;SDS011;6321;53.798;10.382;2023-07-31T05:48:29;6.13;;;5.53;;
12511;SDS011;6321;53.798;10.382;2023-07-31T05:50:55;6.93;;;6.20;;
12511;SDS011;6321;53.798;10.382;2023-07-31T05:53:21;8.40;;;5.40;;
12511;SDS011;6321;53.798;10.382;2023-07-31T05:55:47;6.80;;;5.23;;
12511;SDS011;6321;53.798;10.382;2023-07-31T05:58:13;6.00;;;5.50;;
12511;SDS011;6321;53.798;10.382;2023-07-31T06:00:40;7.30;;;5.27;;
12511;SDS011;6321;53.798;10.382;2023-07-31T06:03:06;5.53;;;4.93;;
12511;SDS011;6321;53.798;10.382;2023-07-31T06:05:32;5.20;;;4.70;;
12511;SDS011;6321;53.798;10.382;2023-07-31T06:07:58;4.97;;;4.40;;
12511;SDS011;6321;53.798;10.382;2023-07-31T06:10:24;4.47;;;4.07;;
12511;SDS011;6321;53.798;10.382;2023-07-31T06:12:50;4.50;;;4.10;;
12511;SDS011;6321;53.798;10.382;2023-07-31T06:15:16;4.70;;;4.30;;
12511;SDS011;6321;53.798;10.382;2023-07-31T06:17:44;4.73;;;4.10;;
12511;SDS011;6321;53.798;10.382;2023-07-31T06:20:10;4.47;;;4.07;;
12511;SDS011;6321;53.798;10.382;2023-07-31T06:22:36;4.57;;;4.10;;
12511;SDS011;6321;53.798;10.382;2023-07-31T06:25:02;3.90;;;3.50;;
12511;SDS011;6321;53.798;10.382;2023-07-31T06:27:28;5.90;;;4.00;;
12511;SDS011;6321;53.798;10.382;2023-07-31T06:29:54;3.43;;;3.23;;
12511;SDS011;6321;53.798;10.382;2023-07-31T06:32:20;3.93;;;3.53;;
12511;SDS011;6321;53.798;10.382;2023-07-31T06:34:46;3.63;;;3.30;;
12511;SDS011;6321;53.798;10.382;2023-07-31T06:37:12;3.70;;;3.40;;
12511;SDS011;6321;53.798;10.382;2023-07-31T06:39:38;4.03;;;3.73;;
12511;SDS011;6321;53.798;10.382;2023-07-31T06:42:04;4.63;;;3.37;;
12511;SDS011;6321;53.798;10.382;2023-07-31T06:44:30;3.37;;;3.07;;
12511;SDS011;6321;53.798;10.382;2023-07-31T06:46:55;2.90;;;2.70;;
12511;SDS011;6321;53.798;10.382;2023-07-31T06:49:21;3.20;;;3.00;;
12511;SDS011;6321;53.798;10.382;2023-07-31T06:51:47;2.87;;;2.50;;
12511;SDS011;6321;53.798;10.382;2023-07-31T06:54:13;2.93;;;2.73;;
12511;SDS011;6321;53.798;10.382;2023-07-31T06:56:39;2.83;;;2.63;;
12511;SDS011;6321;53.798;10.382;2023-07-31T06:59:05;2.90;;;2.70;;
12511;SDS011;6321;53.798;10.382;2023-07-31T07:01:31;3.00;;;2.80;;
12511;SDS011;6321;53.798;10.382;2023-07-31T07:03:57;5.87;;;3.17;;
12511;SDS011;6321;53.798;10.382;2023-07-31T07:06:23;2.90;;;2.70;;
12511;SDS011;6321;53.798;10.382;2023-07-31T07:08:49;3.00;;;2.80;;
12511;SDS011;6321;53.798;10.382;2023-07-31T07:11:15;3.70;;;2.63;;
12511;SDS011;6321;53.798;10.382;2023-07-31T07:13:41;2.60;;;2.40;;
12511;SDS011;6321;53.798;10.382;2023-07-31T07:16:07;2.77;;;2.47;;
12511;SDS011;6321;53.798;10.382;2023-07-31T07:18:33;3.07;;;2.77;;
12511;SDS011;6321;53.798;10.382;2023-07-31T07:20:58;2.80;;;2.60;;
12511;SDS011;6321;53.798;10.382;2023-07-31T07:23:27;2.97;;;2.43;;
12511;SDS011;6321;53.798;10.382;2023-07-31T07:25:53;3.07;;;2.50;;
12511;SDS011;6321;53.798;10.382;2023-07-31T07:28:19;2.90;;;2.70;;
12511;SDS011;6321;53.798;10.382;2023-07-31T07:30:44;3.97;;;3.30;;
12511;SDS011;6321;53.798;10.382;2023-07-31T07:33:10;3.37;;;3.10;;
12511;SDS011;6321;53.798;10.382;2023-07-31T07:35:37;3.60;;;3.40;;
12511;SDS011;6321;53.798;10.382;2023-07-31T07:38:03;4.20;;;3.80;;
12511;SDS011;6321;53.798;10.382;2023-07-31T07:40:29;3.50;;;3.20;;
12511;SDS011;6321;53.798;10.382;2023-07-31T07:42:55;3.47;;;3.27;;
12511;SDS011;6321;53.798;10.382;2023-07-31T07:45:21;3.47;;;3.17;;
12511;SDS011;6321;53.798;10.382;2023-07-31T07:47:47;3.43;;;3.13;;
12511;SDS011;6321;53.798;10.382;2023-07-31T07:50:13;3.07;;;2.87;;
12511;SDS011;6321;53.798;10.382;2023-07-31T07:52:38;3.50;;;2.80;;
12511;SDS011;6321;53.798;10.382;2023-07-31T07:55:05;3.10;;;2.80;;
12511;SDS011;6321;53.798;10.382;2023-07-31T07:57:31;2.90;;;2.70;;
12511;SDS011;6321;53.798;10.382;2023-07-31T07:59:57;3.00;;;2.80;;
12511;SDS011;6321;53.798;10.382;2023-07-31T08:02:22;3.00;;;2.67;;
12511;SDS011;6321;53.798;10.382;2023-07-31T08:04:48;3.03;;;2.83;;
12511;SDS011;6321;53.798;10.382;2023-07-31T08:07:14;3.00;;;2.80;;
12511;SDS011;6321;53.798;10.382;2023-07-31T08:09:40;3.93;;;3.10;;
12511;SDS011;6321;53.798;10.382;2023-07-31T08:12:06;3.27;;;3.07;;
12511;SDS011;6321;53.798;10.382;2023-07-31T08:14:32;3.00;;;2.80;;
12511;SDS011;6321;53.798;10.382;2023-07-31T08:16:58;2.80;;;2.60;;
12511;SDS011;6321;53.798;10.382;2023-07-31T08:19:24;2.97;;;2.67;;
12511;SDS011;6321;53.798;10.382;2023-07-31T08:21:50;2.67;;;2.47;;
12511;SDS011;6321;53.798;10.382;2023-07-31T08:24:16;2.97;;;2.67;;
12511;SDS011;6321;53.798;10.382;2023-07-31T08:26:42;2.57;;;2.37;;
12511;SDS011;6321;53.798;10.382;2023-07-31T08:29:08;2.50;;;2.40;;
12511;SDS011;6321;53.798;10.382;2023-07-31T08:31:34;2.70;;;2.50;;
12511;SDS011;6321;53.798;10.382;2023-07-31T08:34:00;2.23;;;2.10;;
12511;SDS011;6321;53.798;10.382;2023-07-31T08:36:26;2.53;;;2.33;;
12511;SDS011;6321;53.798;10.382;2023-07-31T08:38:52;2.63;;;2.43;;
12511;SDS011;6321;53.798;10.382;2023-07-31T08:41:18;2.53;;;2.10;;
12511;SDS011;6321;53.798;10.382;2023-07-31T08:43:45;2.27;;;2.07;;
12511;SDS011;6321;53.798;10.382;2023-07-31T08:46:11;1.87;;;1.77;;
12511;SDS011;6321;53.798;10.382;2023-07-31T08:48:39;2.53;;;2.33;;
12511;SDS011;6321;53.798;10.382;2023-07-31T08:51:06;2.50;;;2.30;;
12511;SDS011;6321;53.798;10.382;2023-07-31T08:53:32;2.40;;;2.20;;
12511;SDS011;6321;53.798;10.382;2023-07-31T08:55:58;2.53;;;2.03;;
12511;SDS011;6321;53.798;10.382;2023-07-31T08:58:25;2.37;;;2.20;;
12511;SDS011;6321;53.798;10.382;2023-07-31T09:00:53;2.30;;;2.13;;
12511;SDS011;6321;53.798;10.382;2023-07-31T09:03:19;3.00;;;2.80;;
12511;SDS011;6321;53.798;10.382;2023-07-31T09:05:47;2.87;;;2.67;;
12511;SDS011;6321;53.798;10.382;2023-07-31T09:08:13;2.83;;;2.63;;
12511;SDS011;6321;53.798;10.382;2023-07-31T09:10:44;2.80;;;2.60;;
12511;SDS011;6321;53.798;10.382;2023-07-31T09:13:15;2.77;;;2.57;;
12511;SDS011;6321;53.798;10.382;2023-07-31T09:15:43;2.80;;;2.60;;
12511;SDS011;6321;53.798;10.382;2023-07-31T09:18:09;3.93;;;2.83;;
12511;SDS011;6321;53.798;10.382;2023-07-31T09:20:35;3.10;;;2.90;;
12511;SDS011;6321;53.798;10.382;2023-07-31T09:23:06;3.80;;;3.03;;
12511;SDS011;6321;53.798;10.382;2023-07-31T09:25:33;3.00;;;2.70;;
12511;SDS011;6321;53.798;10.382;2023-07-31T09:30:25;2.57;;;2.37;;
12511;SDS011;6321;53.798;10.382;2023-07-31T09:32:52;3.00;;;2.43;;
12511;SDS011;6321;53.798;10.382;2023-07-31T09:35:29;2.77;;;2.57;;
12511;SDS011;6321;53.798;10.382;2023-07-31T09:37:56;3.00;;;2.80;;
12511;SDS011;6321;53.798;10.382;2023-07-31T09:40:26;2.33;;;2.23;;
12511;SDS011;6321;53.798;10.382;2023-07-31T09:42:53;2.67;;;2.47;;
12511;SDS011;6321;53.798;10.382;2023-07-31T09:45:19;2.80;;;2.60;;
12511;SDS011;6321;53.798;10.382;2023-07-31T09:47:46;2.40;;;2.23;;
12511;SDS011;6321;53.798;10.382;2023-07-31T09:50:13;2.90;;;2.40;;
12511;SDS011;6321;53.798;10.382;2023-07-31T09:52:40;3.37;;;2.43;;
12511;SDS011;6321;53.798;10.382;2023-07-31T09:55:06;2.50;;;2.30;;
12511;SDS011;6321;53.798;10.382;2023-07-31T09:57:32;2.43;;;2.23;;
12511;SDS011;6321;53.798;10.382;2023-07-31T09:59:59;4.33;;;2.10;;
12511;SDS011;6321;53.798;10.382;2023-07-31T10:02:25;2.07;;;1.90;;
12511;SDS011;6321;53.798;10.382;2023-07-31T10:04:52;2.33;;;2.03;;
12511;SDS011;6321;53.798;10.382;2023-07-31T10:07:20;3.63;;;2.30;;
12511;SDS011;6321;53.798;10.382;2023-07-31T10:09:48;2.63;;;2.40;;
12511;SDS011;6321;53.798;10.382;2023-07-31T10:12:14;2.40;;;2.20;;
12511;SDS011;6321;53.798;10.382;2023-07-31T10:14:43;2.20;;;1.70;;
12511;SDS011;6321;53.798;10.382;2023-07-31T10:17:09;2.30;;;2.10;;
12511;SDS011;6321;53.798;10.382;2023-07-31T10:19:35;2.10;;;2.00;;
12511;SDS011;6321;53.798;10.382;2023-07-31T10:22:02;2.10;;;2.00;;
12511;SDS011;6321;53.798;10.382;2023-07-31T10:24:28;2.20;;;2.10;;
12511;SDS011;6321;53.798;10.382;2023-07-31T10:26:55;2.10;;;1.90;;
12511;SDS011;6321;53.798;10.382;2023-07-31T10:29:23;1.70;;;1.60;;
12511;SDS011;6321;53.798;10.382;2023-07-31T10:31:50;2.20;;;2.10;;
12511;SDS011;6321;53.798;10.382;2023-07-31T10:34:16;2.00;;;1.90;;
12511;SDS011;6321;53.798;10.382;2023-07-31T10:36:42;1.70;;;1.57;;
12511;SDS011;6321;53.798;10.382;2023-07-31T10:39:33;1.70;;;1.60;;
12511;SDS011;6321;53.798;10.382;2023-07-31T10:41:54;1.40;;;1.30;;
12511;SDS011;6321;53.798;10.382;2023-07-31T10:44:20;1.70;;;1.60;;
12511;SDS011;6321;53.798;10.382;2023-07-31T10:46:46;1.63;;;1.50;;
12511;SDS011;6321;53.798;10.382;2023-07-31T10:49:12;2.67;;;1.50;;
12511;SDS011;6321;53.798;10.382;2023-07-31T10:51:47;2.10;;;1.67;;
12511;SDS011;6321;53.798;10.382;2023-07-31T10:54:13;3.30;;;1.70;;
12511;SDS011;6321;53.798;10.382;2023-07-31T10:56:40;1.70;;;1.43;;
12511;SDS011;6321;53.798;10.382;2023-07-31T10:59:06;3.07;;;1.80;;
12511;SDS011;6321;53.798;10.382;2023-07-31T11:01:51;1.60;;;1.50;;
12511;SDS011;6321;53.798;10.382;2023-07-31T11:04:21;1.90;;;1.23;;
12511;SDS011;6321;53.798;10.382;2023-07-31T11:06:55;1.40;;;1.30;;
12511;SDS011;6321;53.798;10.382;2023-07-31T11:09:21;3.73;;;1.90;;
12511;SDS011;6321;53.798;10.382;2023-07-31T11:11:47;1.60;;;1.30;;
12511;SDS011;6321;53.798;10.382;2023-07-31T11:14:16;1.30;;;1.13;;
12511;SDS011;6321;53.798;10.382;2023-07-31T11:16:42;2.67;;;1.60;;
12511;SDS011;6321;53.798;10.382;2023-07-31T11:19:08;1.17;;;1.10;;
12511;SDS011;6321;53.798;10.382;2023-07-31T11:21:34;3.37;;;1.10;;
12511;SDS011;6321;53.798;10.382;2023-07-31T11:24:00;1.73;;;1.00;;
12511;SDS011;6321;53.798;10.382;2023-07-31T11:26:26;1.47;;;1.03;;
12511;SDS011;6321;53.798;10.382;2023-07-31T11:28:52;1.63;;;1.20;;
12511;SDS011;6321;53.798;10.382;2023-07-31T11:31:18;6.43;;;1.57;;
12511;SDS011;6321;53.798;10.382;2023-07-31T11:33:45;1.30;;;1.20;;
12511;SDS011;6321;53.798;10.382;2023-07-31T11:36:17;1.30;;;1.20;;
12511;SDS011;6321;53.798;10.382;2023-07-31T11:38:43;1.03;;;1.03;;
12511;SDS011;6321;53.798;10.382;2023-07-31T11:41:09;2.83;;;1.10;;
12511;SDS011;6321;53.798;10.382;2023-07-31T11:43:35;1.83;;;0.93;;
12511;SDS011;6321;53.798;10.382;2023-07-31T11:46:01;1.00;;;1.00;;
12511;SDS011;6321;53.798;10.382;2023-07-31T11:48:31;1.10;;;0.60;;
12511;SDS011;6321;53.798;10.382;2023-07-31T11:50:59;2.23;;;1.00;;
12511;SDS011;6321;53.798;10.382;2023-07-31T11:53:26;1.07;;;0.97;;
12511;SDS011;6321;53.798;10.382;2023-07-31T11:55:54;2.17;;;0.93;;
12511;SDS011;6321;53.798;10.382;2023-07-31T11:58:20;11.33;;;1.30;;
12511;SDS011;6321;53.798;10.382;2023-07-31T12:00:46;1.17;;;1.00;;
12511;SDS011;6321;53.798;10.382;2023-07-31T12:03:12;1.27;;;1.00;;
12511;SDS011;6321;53.798;10.382;2023-07-31T12:05:39;3.63;;;1.43;;
12511;SDS011;6321;53.798;10.382;2023-07-31T12:08:11;1.10;;;1.00;;
12511;SDS011;6321;53.798;10.382;2023-07-31T12:10:37;1.77;;;1.10;;
12511;SDS011;6321;53.798;10.382;2023-07-31T12:13:07;2.33;;;1.40;;
12511;SDS011;6321;53.798;10.382;2023-07-31T12:15:42;5.90;;;1.20;;
12511;SDS011;6321;53.798;10.382;2023-07-31T12:18:12;1.20;;;0.83;;
12511;SDS011;6321;53.798;10.382;2023-07-31T12:20:43;1.00;;;0.87;;
12511;SDS011;6321;53.798;10.382;2023-07-31T12:23:13;1.23;;;1.13;;
12511;SDS011;6321;53.798;10.382;2023-07-31T12:25:40;2.83;;;1.10;;
12511;SDS011;6321;53.798;10.382;2023-07-31T12:28:06;1.23;;;1.10;;
12511;SDS011;6321;53.798;10.382;2023-07-31T12:30:36;1.10;;;0.93;;
12511;SDS011;6321;53.798;10.382;2023-07-31T12:33:03;1.77;;;1.03;;
12511;SDS011;6321;53.798;10.382;2023-07-31T12:35:36;1.20;;;1.10;;
12511;SDS011;6321;53.798;10.382;2023-07-31T12:38:02;2.50;;;1.23;;
12511;SDS011;6321;53.798;10.382;2023-07-31T12:40:28;3.40;;;1.70;;
12511;SDS011;6321;53.798;10.382;2023-07-31T12:42:54;1.27;;;1.17;;
12511;SDS011;6321;53.798;10.382;2023-07-31T12:45:20;1.00;;;1.00;;
12511;SDS011;6321;53.798;10.382;2023-07-31T12:47:48;1.23;;;1.00;;
12511;SDS011;6321;53.798;10.382;2023-07-31T12:50:13;1.53;;;1.07;;
12511;SDS011;6321;53.798;10.382;2023-07-31T13:06:37;1.30;;;1.20;;
12511;SDS011;6321;53.798;10.382;2023-07-31T13:30:54;1.40;;;1.30;;
12511;SDS011;6321;53.798;10.382;2023-07-31T13:33:20;1.50;;;1.40;;
12511;SDS011;6321;53.798;10.382;2023-07-31T13:35:46;1.30;;;1.20;;
12511;SDS011;6321;53.798;10.382;2023-07-31T13:38:13;2.80;;;1.57;;
12511;SDS011;6321;53.798;10.382;2023-07-31T13:40:43;1.50;;;1.40;;
12511;SDS011;6321;53.798;10.382;2023-07-31T13:43:09;2.90;;;1.40;;
12511;SDS011;6321;53.798;10.382;2023-07-31T13:45:35;3.13;;;1.80;;
12511;SDS011;6321;53.798;10.382;2023-07-31T13:48:01;2.63;;;1.70;;
12511;SDS011;6321;53.798;10.382;2023-07-31T13:50:27;3.00;;;1.60;;
12511;SDS011;6321;53.798;10.382;2023-07-31T13:52:53;1.87;;;1.50;;
12511;SDS011;6321;53.798;10.382;2023-07-31T13:55:19;1.70;;;1.60;;
12511;SDS011;6321;53.798;10.382;2023-07-31T13:57:45;2.60;;;1.63;;
12511;SDS011;6321;53.798;10.382;2023-07-31T14:00:11;2.53;;;1.80;;
12511;SDS011;6321;53.798;10.382;2023-07-31T14:02:37;1.77;;;1.60;;
12511;SDS011;6321;53.798;10.382;2023-07-31T14:05:03;2.63;;;1.60;;
12511;SDS011;6321;53.798;10.382;2023-07-31T14:07:31;2.23;;;1.60;;
12511;SDS011;6321;53.798;10.382;2023-07-31T14:09:57;3.37;;;1.73;;
12511;SDS011;6321;53.798;10.382;2023-07-31T14:12:23;1.50;;;1.40;;
12511;SDS011;6321;53.798;10.382;2023-07-31T14:14:49;1.60;;;1.50;;
12511;SDS011;6321;53.798;10.382;2023-07-31T14:17:15;2.50;;;1.47;;
12511;SDS011;6321;53.798;10.382;2023-07-31T14:19:41;1.77;;;1.60;;
12511;SDS011;6321;53.798;10.382;2023-07-31T14:22:07;1.43;;;1.33;;
12511;SDS011;6321;53.798;10.382;2023-07-31T14:24:33;2.60;;;1.43;;
12511;SDS011;6321;53.798;10.382;2023-07-31T14:26:59;2.50;;;1.70;;
12511;SDS011;6321;53.798;10.382;2023-07-31T14:29:25;2.93;;;1.70;;
12511;SDS011;6321;53.798;10.382;2023-07-31T14:31:51;6.20;;;1.80;;
12511;SDS011;6321;53.798;10.382;2023-07-31T14:34:17;2.03;;;1.40;;
12511;SDS011;6321;53.798;10.382;2023-07-31T14:36:43;2.00;;;1.50;;
12511;SDS011;6321;53.798;10.382;2023-07-31T14:39:09;1.73;;;1.63;;
12511;SDS011;6321;53.798;10.382;2023-07-31T14:41:35;2.50;;;1.67;;
12511;SDS011;6321;53.798;10.382;2023-07-31T14:44:01;2.67;;;1.77;;
12511;SDS011;6321;53.798;10.382;2023-07-31T14:46:27;5.43;;;2.10;;
12511;SDS011;6321;53.798;10.382;2023-07-31T14:48:53;5.07;;;1.73;;
12511;SDS011;6321;53.798;10.382;2023-07-31T14:51:19;3.70;;;2.00;;
12511;SDS011;6321;53.798;10.382;2023-07-31T14:53:45;2.90;;;1.90;;
12511;SDS011;6321;53.798;10.382;2023-07-31T14:56:12;3.27;;;1.90;;
12511;SDS011;6321;53.798;10.382;2023-07-31T14:58:38;2.97;;;2.50;;
12511;SDS011;6321;53.798;10.382;2023-07-31T15:01:04;3.60;;;2.43;;
12511;SDS011;6321;53.798;10.382;2023-07-31T15:03:29;3.03;;;1.90;;
12511;SDS011;6321;53.798;10.382;2023-07-31T15:05:56;3.47;;;2.37;;
12511;SDS011;6321;53.798;10.382;2023-07-31T15:08:21;2.47;;;1.80;;
12511;SDS011;6321;53.798;10.382;2023-07-31T15:10:47;1.77;;;1.57;;
12511;SDS011;6321;53.798;10.382;2023-07-31T15:13:14;2.53;;;1.80;;
12511;SDS011;6321;53.798;10.382;2023-07-31T15:15:40;1.97;;;1.77;;
12511;SDS011;6321;53.798;10.382;2023-07-31T15:18:06;3.67;;;1.87;;
12511;SDS011;6321;53.798;10.382;2023-07-31T15:20:32;1.90;;;1.80;;
12511;SDS011;6321;53.798;10.382;2023-07-31T15:22:59;1.90;;;1.70;;
12511;SDS011;6321;53.798;10.382;2023-07-31T15:25:24;1.73;;;1.27;;